Peyrelevade (19) - E

Date : 09/04/2012

Place Nom Licence Catégorie Club Temps CN à J-60 Points Différence Nouveau CN
1 DROIN Solène 17925 D16 4201RA 0:23:46 4634 5502 +868 5241
2 BODY Mathilde 10184 D16 7305RA 0:24:04 5413 5433 +20 5501
3 DERMINE Jean 1848 H60 3801RA 0:24:27 5965 5348 -617 6194
4 HABERKORN Chloé 10396 D16 2105BO 0:24:38 5413 5308 -105 5746
5 BORNARD Julie 9402 D16 7305RA 0:25:51 4337 5058 +721 4813
6 GIRARD Lucille 19689 D16 3705CE 0:26:02 5105 5023 -82 5139
7 BEAUVIR Maëlle 12709 D16 3502BR 0:26:26 4492 4947 +455 5185
8 PETER-JAN Lucile 19276 D16 3705CE 0:26:58 4983 4849 -134 4983
9 GUILLEMET Océane 22819 D16 3318AQ 0:27:34 3212 4743 +1531 4825
10 RIVOLLIER Isaline 22451 D16 4201RA 0:28:43 3898 4553 +655 4507
11 MAGDINIER Gilles 1635 H60 1307PR 0:29:22 4806 4452 -354 4904
12 BERGER-CAPBERN Valérie 6068 D50 3105MP 0:29:58 5119 4363 -756 5138
13 DARGENTON Bernard 24684 H60 3705CE 0:30:23 3185 4303 +1118 4024
14 ANTOINE Alain 1270 H65 2605RA 0:30:46 4960 4250 -710 5011
15 COMBET Annie 813 D50 4203RA 0:32:20 4353 4044 -309 4475
16 DUQUENNE Audrey 23885 D16 5907NO 0:32:35 3535 4013 +478 4034
17 FOL Loreline 16393 D16 3105MP 0:32:47 3325 3988 +663 4096
18 VALETTE Marion 10430 D16 6913RA 0:33:32 3633 3899 +266 4187
19 CHARDOT Marion 22315 D16 7807IF 0:34:49 4021 3756 -265 4032
20 DELENNE Camilla 13800 D16 1307PR 0:35:11 3808 3716 -92 4063
21 DERMINE Isabelle 1847 D50 3801RA 0:35:15 4942 3709 -1233 4917
22 MOUSSU Sarah 22301 D16 3318AQ 0:35:57 2527 3637 +1110 3436
23 LUTHRINGER Coline 10091 D16 8809LO 0:36:14 4352 3609 -743 4397
24 ROULLEAUX Julie 11559 D16 9105IF 0:37:10 5407 3518 -1889 5587
25 MARTINEZ Catherine 7833 D50 4012AQ 0:38:31 3347 3395 +48 3545
26 PICAZO Marie 16555 D16 8405PR 0:38:54 4259 3361 -898 4259
27 PINZELLI Tamara 23551 D16 1905LI 0:39:00 2776 3353 +577 3364
28 FORGET Sandrine 18745 D40 4708AQ 0:40:28 2761 3231 +470 3232
29 LEMERCIER Victoire 11454 D16 5407LO 0:40:39 3643 3217 -426 3712
30 MOREAU Merlin 19584 H14 2605RA 0:41:17 2681 3167 +486 2891
31 JACOMINO Mireille 277 D50 3801RA 0:41:33 4049 3147 -902 4071
32 BLANCHARD Grégorine 11530 D21 3705CE 0:42:33 2654 3073 +419 3070
33 TOUZAIN ROULLEAUX Isabelle 8920 D50 9105IF 0:44:05 3900 2966 -934 3985
34 BONORA Marine 11542 D16 6906RA 0:44:38 3743 2930 -813 3865
35 VILLEDIEU Martine 13752 D55 6913RA 0:46:48 3873 2794 -1079 3873
36 MASSIN Margot 22860 D16 5907NO 0:47:59 2739 2725 -14 3515
37 FEUGEAS Clothilde 22198 D16 1905LI 0:48:33 1595 2693 +1098 2199
38 ROUX Marie Françoise 25236 D50 4201RA 0:57:02 2293 3079
39 POULAIN Odile 1948 D50 5908NO 0:57:15 3410 2284 -1126 3401
40 DECHAVANNE Denise 3462 D55 6911RA 1:03:36 2276 2056 -220 2276
41 PEYCLIT Christine 19825 D45 1905LI 1:22:16 1868 1589 -279 2221
42 GOURVIL Elisabeth 18473 D45 3705CE 1:40:40 1428 1299 -129 1258
DRAULT J-Raymond 4234 H70 8702LI pm 2782 0 2975
DECHAVANNE Jean-Francois 3461 H60 6911RA pm 6101 0 6101